sensor_id;sensor_type;location;lat;lon;timestamp;P1;durP1;ratioP1;P2;durP2;ratioP2
26908;SDS011;14477;51.038;4.588;2023-09-08T00:00:41;4.40;;;2.93;;
26908;SDS011;14477;51.038;4.588;2023-09-08T00:03:07;3.40;;;2.60;;
26908;SDS011;14477;51.038;4.588;2023-09-08T00:05:32;4.53;;;2.65;;
26908;SDS011;14477;51.038;4.588;2023-09-08T00:07:58;4.18;;;2.88;;
26908;SDS011;14477;51.038;4.588;2023-09-08T00:10:24;3.80;;;2.63;;
26908;SDS011;14477;51.038;4.588;2023-09-08T00:12:49;4.68;;;3.00;;
26908;SDS011;14477;51.038;4.588;2023-09-08T00:15:16;3.10;;;2.57;;
26908;SDS011;14477;51.038;4.588;2023-09-08T00:17:42;3.53;;;2.78;;
26908;SDS011;14477;51.038;4.588;2023-09-08T00:20:08;4.53;;;2.90;;
26908;SDS011;14477;51.038;4.588;2023-09-08T00:22:34;4.00;;;2.80;;
26908;SDS011;14477;51.038;4.588;2023-09-08T00:25:00;3.55;;;2.80;;
26908;SDS011;14477;51.038;4.588;2023-09-08T00:27:26;4.68;;;2.90;;
26908;SDS011;14477;51.038;4.588;2023-09-08T00:29:52;4.37;;;2.90;;
26908;SDS011;14477;51.038;4.588;2023-09-08T00:32:18;3.45;;;2.75;;
26908;SDS011;14477;51.038;4.588;2023-09-08T00:34:43;3.73;;;2.73;;
26908;SDS011;14477;51.038;4.588;2023-09-08T00:37:09;3.88;;;3.00;;
26908;SDS011;14477;51.038;4.588;2023-09-08T00:39:37;3.15;;;2.55;;
26908;SDS011;14477;51.038;4.588;2023-09-08T00:42:03;3.47;;;2.70;;
26908;SDS011;14477;51.038;4.588;2023-09-08T00:44:29;3.50;;;2.60;;
26908;SDS011;14477;51.038;4.588;2023-09-08T00:46:55;4.53;;;3.05;;
26908;SDS011;14477;51.038;4.588;2023-09-08T00:49:21;4.65;;;3.00;;
26908;SDS011;14477;51.038;4.588;2023-09-08T00:51:47;3.08;;;2.45;;
26908;SDS011;14477;51.038;4.588;2023-09-08T00:54:13;3.70;;;2.77;;
26908;SDS011;14477;51.038;4.588;2023-09-08T00:56:40;2.95;;;2.42;;
26908;SDS011;14477;51.038;4.588;2023-09-08T00:59:06;2.90;;;2.47;;
26908;SDS011;14477;51.038;4.588;2023-09-08T01:01:33;3.55;;;2.72;;
26908;SDS011;14477;51.038;4.588;2023-09-08T01:04:02;3.55;;;2.65;;
26908;SDS011;14477;51.038;4.588;2023-09-08T01:06:28;3.33;;;2.77;;
26908;SDS011;14477;51.038;4.588;2023-09-08T01:08:55;3.65;;;2.70;;
26908;SDS011;14477;51.038;4.588;2023-09-08T01:11:21;3.55;;;2.38;;
26908;SDS011;14477;51.038;4.588;2023-09-08T01:13:47;3.65;;;2.55;;
26908;SDS011;14477;51.038;4.588;2023-09-08T01:16:13;3.50;;;2.50;;
26908;SDS011;14477;51.038;4.588;2023-09-08T01:18:39;3.58;;;2.50;;
26908;SDS011;14477;51.038;4.588;2023-09-08T01:21:11;3.70;;;2.40;;
26908;SDS011;14477;51.038;4.588;2023-09-08T01:26:27;3.72;;;2.53;;
26908;SDS011;14477;51.038;4.588;2023-09-08T01:29:01;3.60;;;2.58;;
26908;SDS011;14477;51.038;4.588;2023-09-08T01:31:29;3.38;;;2.53;;
26908;SDS011;14477;51.038;4.588;2023-09-08T01:33:55;2.63;;;2.30;;
26908;SDS011;14477;51.038;4.588;2023-09-08T01:36:22;2.97;;;2.50;;
26908;SDS011;14477;51.038;4.588;2023-09-08T01:38:47;3.03;;;2.35;;
26908;SDS011;14477;51.038;4.588;2023-09-08T01:41:13;3.57;;;2.50;;
26908;SDS011;14477;51.038;4.588;2023-09-08T01:43:39;4.22;;;2.67;;
26908;SDS011;14477;51.038;4.588;2023-09-08T01:46:04;3.50;;;2.50;;
26908;SDS011;14477;51.038;4.588;2023-09-08T01:48:30;4.55;;;2.58;;
26908;SDS011;14477;51.038;4.588;2023-09-08T01:50:56;3.50;;;2.63;;
26908;SDS011;14477;51.038;4.588;2023-09-08T01:53:21;3.75;;;2.78;;
26908;SDS011;14477;51.038;4.588;2023-09-08T01:55:47;3.47;;;2.30;;
26908;SDS011;14477;51.038;4.588;2023-09-08T01:58:13;3.30;;;2.33;;
26908;SDS011;14477;51.038;4.588;2023-09-08T02:00:38;3.07;;;2.40;;
26908;SDS011;14477;51.038;4.588;2023-09-08T02:03:04;3.70;;;2.60;;
26908;SDS011;14477;51.038;4.588;2023-09-08T02:05:30;3.30;;;2.40;;
26908;SDS011;14477;51.038;4.588;2023-09-08T02:07:55;3.05;;;2.47;;
26908;SDS011;14477;51.038;4.588;2023-09-08T02:10:22;3.30;;;2.90;;
26908;SDS011;14477;51.038;4.588;2023-09-08T02:12:47;3.10;;;2.43;;
26908;SDS011;14477;51.038;4.588;2023-09-08T02:15:13;3.40;;;2.42;;
26908;SDS011;14477;51.038;4.588;2023-09-08T02:17:40;3.58;;;2.63;;
26908;SDS011;14477;51.038;4.588;2023-09-08T02:20:06;2.93;;;2.30;;
26908;SDS011;14477;51.038;4.588;2023-09-08T02:22:32;4.65;;;2.60;;
26908;SDS011;14477;51.038;4.588;2023-09-08T02:24:58;3.43;;;2.70;;
26908;SDS011;14477;51.038;4.588;2023-09-08T02:27:24;3.13;;;2.63;;
26908;SDS011;14477;51.038;4.588;2023-09-08T02:29:50;3.50;;;2.70;;
26908;SDS011;14477;51.038;4.588;2023-09-08T02:32:15;3.93;;;2.40;;
26908;SDS011;14477;51.038;4.588;2023-09-08T02:34:41;3.10;;;2.33;;
26908;SDS011;14477;51.038;4.588;2023-09-08T02:37:07;3.93;;;2.50;;
26908;SDS011;14477;51.038;4.588;2023-09-08T02:39:33;3.20;;;2.60;;
26908;SDS011;14477;51.038;4.588;2023-09-08T02:41:59;3.53;;;2.83;;
26908;SDS011;14477;51.038;4.588;2023-09-08T02:44:25;3.63;;;2.90;;
26908;SDS011;14477;51.038;4.588;2023-09-08T02:46:52;3.38;;;2.60;;
26908;SDS011;14477;51.038;4.588;2023-09-08T02:49:17;3.90;;;2.80;;
26908;SDS011;14477;51.038;4.588;2023-09-08T02:51:43;3.20;;;2.30;;
26908;SDS011;14477;51.038;4.588;2023-09-08T02:54:09;4.05;;;2.75;;
26908;SDS011;14477;51.038;4.588;2023-09-08T02:56:34;3.50;;;2.73;;
26908;SDS011;14477;51.038;4.588;2023-09-08T02:59:00;4.43;;;2.95;;
26908;SDS011;14477;51.038;4.588;2023-09-08T03:01:26;3.23;;;2.50;;
26908;SDS011;14477;51.038;4.588;2023-09-08T03:03:51;3.83;;;2.50;;
26908;SDS011;14477;51.038;4.588;2023-09-08T03:06:18;3.90;;;3.10;;
26908;SDS011;14477;51.038;4.588;2023-09-08T03:08:45;3.15;;;2.60;;
26908;SDS011;14477;51.038;4.588;2023-09-08T03:11:12;3.72;;;2.58;;
26908;SDS011;14477;51.038;4.588;2023-09-08T03:13:38;3.40;;;2.50;;
26908;SDS011;14477;51.038;4.588;2023-09-08T03:16:04;4.15;;;2.85;;
26908;SDS011;14477;51.038;4.588;2023-09-08T03:18:32;4.10;;;3.10;;
26908;SDS011;14477;51.038;4.588;2023-09-08T03:20:59;4.03;;;2.85;;
26908;SDS011;14477;51.038;4.588;2023-09-08T03:23:26;4.53;;;2.43;;
26908;SDS011;14477;51.038;4.588;2023-09-08T03:25:52;3.50;;;2.67;;
26908;SDS011;14477;51.038;4.588;2023-09-08T03:28:18;4.03;;;3.00;;
26908;SDS011;14477;51.038;4.588;2023-09-08T03:30:44;4.27;;;3.03;;
26908;SDS011;14477;51.038;4.588;2023-09-08T03:33:09;3.78;;;2.80;;
26908;SDS011;14477;51.038;4.588;2023-09-08T03:35:35;3.17;;;2.57;;
26908;SDS011;14477;51.038;4.588;2023-09-08T03:38:01;4.15;;;2.70;;
26908;SDS011;14477;51.038;4.588;2023-09-08T03:40:27;3.58;;;2.72;;
26908;SDS011;14477;51.038;4.588;2023-09-08T03:42:52;3.90;;;2.90;;
26908;SDS011;14477;51.038;4.588;2023-09-08T03:45:18;4.00;;;2.83;;
26908;SDS011;14477;51.038;4.588;2023-09-08T03:47:44;3.00;;;2.40;;
26908;SDS011;14477;51.038;4.588;2023-09-08T03:50:10;4.22;;;2.83;;
26908;SDS011;14477;51.038;4.588;2023-09-08T03:52:36;3.30;;;2.40;;
26908;SDS011;14477;51.038;4.588;2023-09-08T03:55:02;4.30;;;2.47;;
26908;SDS011;14477;51.038;4.588;2023-09-08T03:57:28;3.80;;;2.58;;
26908;SDS011;14477;51.038;4.588;2023-09-08T03:59:53;4.07;;;2.57;;
26908;SDS011;14477;51.038;4.588;2023-09-08T04:02:19;3.63;;;2.58;;
26908;SDS011;14477;51.038;4.588;2023-09-08T04:04:45;5.50;;;2.80;;
26908;SDS011;14477;51.038;4.588;2023-09-08T04:07:10;4.20;;;2.60;;
26908;SDS011;14477;51.038;4.588;2023-09-08T04:09:36;3.37;;;2.70;;
26908;SDS011;14477;51.038;4.588;2023-09-08T04:12:02;4.20;;;2.72;;
26908;SDS011;14477;51.038;4.588;2023-09-08T04:14:27;2.90;;;2.50;;
26908;SDS011;14477;51.038;4.588;2023-09-08T04:16:55;3.83;;;2.50;;
26908;SDS011;14477;51.038;4.588;2023-09-08T04:19:21;3.00;;;2.10;;
26908;SDS011;14477;51.038;4.588;2023-09-08T04:21:46;2.78;;;2.13;;
26908;SDS011;14477;51.038;4.588;2023-09-08T04:24:12;2.80;;;2.20;;
26908;SDS011;14477;51.038;4.588;2023-09-08T04:26:38;3.90;;;2.65;;
26908;SDS011;14477;51.038;4.588;2023-09-08T04:29:04;3.22;;;2.38;;
26908;SDS011;14477;51.038;4.588;2023-09-08T04:31:29;4.07;;;2.53;;
26908;SDS011;14477;51.038;4.588;2023-09-08T04:33:55;3.17;;;2.45;;
26908;SDS011;14477;51.038;4.588;2023-09-08T04:36:21;3.17;;;2.50;;
26908;SDS011;14477;51.038;4.588;2023-09-08T04:38:47;3.40;;;2.38;;
26908;SDS011;14477;51.038;4.588;2023-09-08T04:41:13;3.93;;;2.43;;
26908;SDS011;14477;51.038;4.588;2023-09-08T04:43:38;3.20;;;2.50;;
26908;SDS011;14477;51.038;4.588;2023-09-08T04:46:04;3.23;;;2.60;;
26908;SDS011;14477;51.038;4.588;2023-09-08T04:48:30;3.58;;;2.50;;
26908;SDS011;14477;51.038;4.588;2023-09-08T04:50:56;3.17;;;2.40;;
26908;SDS011;14477;51.038;4.588;2023-09-08T04:53:22;3.90;;;2.63;;
26908;SDS011;14477;51.038;4.588;2023-09-08T04:55:48;2.95;;;2.25;;
26908;SDS011;14477;51.038;4.588;2023-09-08T04:58:13;3.90;;;2.60;;
26908;SDS011;14477;51.038;4.588;2023-09-08T05:00:39;4.00;;;2.67;;
26908;SDS011;14477;51.038;4.588;2023-09-08T05:03:05;2.80;;;2.20;;
26908;SDS011;14477;51.038;4.588;2023-09-08T05:05:31;3.50;;;2.55;;
26908;SDS011;14477;51.038;4.588;2023-09-08T05:07:57;3.30;;;2.40;;
26908;SDS011;14477;51.038;4.588;2023-09-08T05:10:23;3.00;;;2.20;;
26908;SDS011;14477;51.038;4.588;2023-09-08T05:12:49;3.75;;;2.33;;
26908;SDS011;14477;51.038;4.588;2023-09-08T05:15:15;2.83;;;2.17;;
26908;SDS011;14477;51.038;4.588;2023-09-08T05:17:42;3.17;;;2.37;;
26908;SDS011;14477;51.038;4.588;2023-09-08T05:20:08;2.80;;;2.10;;
26908;SDS011;14477;51.038;4.588;2023-09-08T05:22:34;3.38;;;2.30;;
26908;SDS011;14477;51.038;4.588;2023-09-08T05:25:01;3.47;;;2.67;;
26908;SDS011;14477;51.038;4.588;2023-09-08T05:27:27;3.30;;;2.38;;
26908;SDS011;14477;51.038;4.588;2023-09-08T05:29:53;3.23;;;2.40;;
26908;SDS011;14477;51.038;4.588;2023-09-08T05:32:19;3.10;;;2.50;;
26908;SDS011;14477;51.038;4.588;2023-09-08T05:34:45;3.13;;;2.60;;
26908;SDS011;14477;51.038;4.588;2023-09-08T05:37:10;3.20;;;2.50;;
26908;SDS011;14477;51.038;4.588;2023-09-08T05:39:36;3.60;;;2.70;;
26908;SDS011;14477;51.038;4.588;2023-09-08T05:42:02;3.90;;;2.78;;
26908;SDS011;14477;51.038;4.588;2023-09-08T05:44:28;3.70;;;2.83;;
26908;SDS011;14477;51.038;4.588;2023-09-08T05:46:54;4.80;;;2.93;;
26908;SDS011;14477;51.038;4.588;2023-09-08T05:49:20;3.40;;;2.55;;
26908;SDS011;14477;51.038;4.588;2023-09-08T05:51:46;3.20;;;2.55;;
26908;SDS011;14477;51.038;4.588;2023-09-08T05:54:11;2.90;;;2.40;;
26908;SDS011;14477;51.038;4.588;2023-09-08T05:56:37;3.78;;;2.50;;
26908;SDS011;14477;51.038;4.588;2023-09-08T05:59:03;3.42;;;2.70;;
26908;SDS011;14477;51.038;4.588;2023-09-08T06:01:30;3.40;;;2.67;;
26908;SDS011;14477;51.038;4.588;2023-09-08T06:03:56;3.97;;;2.63;;
26908;SDS011;14477;51.038;4.588;2023-09-08T06:06:22;3.95;;;2.63;;
26908;SDS011;14477;51.038;4.588;2023-09-08T06:08:48;3.10;;;2.57;;
26908;SDS011;14477;51.038;4.588;2023-09-08T06:11:14;3.92;;;2.60;;
26908;SDS011;14477;51.038;4.588;2023-09-08T06:13:40;3.22;;;2.63;;
26908;SDS011;14477;51.038;4.588;2023-09-08T06:16:05;4.60;;;2.83;;
26908;SDS011;14477;51.038;4.588;2023-09-08T06:18:32;3.30;;;2.60;;
26908;SDS011;14477;51.038;4.588;2023-09-08T06:21:05;3.80;;;2.65;;
26908;SDS011;14477;51.038;4.588;2023-09-08T06:23:32;3.65;;;2.80;;
26908;SDS011;14477;51.038;4.588;2023-09-08T06:25:59;4.05;;;2.80;;
26908;SDS011;14477;51.038;4.588;2023-09-08T06:28:29;4.17;;;2.80;;
26908;SDS011;14477;51.038;4.588;2023-09-08T06:30:55;3.60;;;2.78;;
26908;SDS011;14477;51.038;4.588;2023-09-08T06:33:21;4.07;;;2.92;;
26908;SDS011;14477;51.038;4.588;2023-09-08T06:35:49;4.45;;;2.58;;
26908;SDS011;14477;51.038;4.588;2023-09-08T06:38:15;3.80;;;2.87;;
26908;SDS011;14477;51.038;4.588;2023-09-08T06:40:41;3.42;;;2.70;;
26908;SDS011;14477;51.038;4.588;2023-09-08T06:43:07;3.53;;;2.80;;
26908;SDS011;14477;51.038;4.588;2023-09-08T06:45:33;3.47;;;2.73;;
26908;SDS011;14477;51.038;4.588;2023-09-08T06:47:58;3.67;;;2.83;;
26908;SDS011;14477;51.038;4.588;2023-09-08T06:50:25;4.07;;;2.73;;
26908;SDS011;14477;51.038;4.588;2023-09-08T06:52:51;4.03;;;2.72;;
26908;SDS011;14477;51.038;4.588;2023-09-08T06:55:17;5.07;;;2.85;;
26908;SDS011;14477;51.038;4.588;2023-09-08T06:57:44;3.90;;;2.80;;
26908;SDS011;14477;51.038;4.588;2023-09-08T07:00:11;3.67;;;3.03;;
26908;SDS011;14477;51.038;4.588;2023-09-08T07:02:38;3.40;;;2.70;;
26908;SDS011;14477;51.038;4.588;2023-09-08T07:05:04;4.28;;;2.92;;
26908;SDS011;14477;51.038;4.588;2023-09-08T07:07:36;4.75;;;3.15;;
26908;SDS011;14477;51.038;4.588;2023-09-08T07:10:03;3.45;;;2.83;;
26908;SDS011;14477;51.038;4.588;2023-09-08T07:12:29;4.40;;;3.03;;
26908;SDS011;14477;51.038;4.588;2023-09-08T07:14:55;4.40;;;2.97;;
26908;SDS011;14477;51.038;4.588;2023-09-08T07:17:21;5.03;;;3.25;;
26908;SDS011;14477;51.038;4.588;2023-09-08T07:19:48;3.95;;;3.20;;
26908;SDS011;14477;51.038;4.588;2023-09-08T07:22:15;4.30;;;3.15;;
26908;SDS011;14477;51.038;4.588;2023-09-08T07:24:41;4.43;;;2.97;;
26908;SDS011;14477;51.038;4.588;2023-09-08T07:27:07;4.03;;;3.10;;
26908;SDS011;14477;51.038;4.588;2023-09-08T07:29:33;4.68;;;3.30;;
26908;SDS011;14477;51.038;4.588;2023-09-08T07:31:59;4.18;;;3.28;;
26908;SDS011;14477;51.038;4.588;2023-09-08T07:34:25;5.33;;;3.67;;
26908;SDS011;14477;51.038;4.588;2023-09-08T07:36:51;5.07;;;3.38;;
26908;SDS011;14477;51.038;4.588;2023-09-08T07:39:16;3.80;;;3.03;;
26908;SDS011;14477;51.038;4.588;2023-09-08T07:41:42;4.00;;;3.20;;
26908;SDS011;14477;51.038;4.588;2023-09-08T07:44:08;4.03;;;3.20;;
26908;SDS011;14477;51.038;4.588;2023-09-08T07:46:34;3.53;;;2.90;;
26908;SDS011;14477;51.038;4.588;2023-09-08T07:48:59;4.53;;;3.30;;
26908;SDS011;14477;51.038;4.588;2023-09-08T07:51:26;3.80;;;3.30;;
26908;SDS011;14477;51.038;4.588;2023-09-08T07:53:55;3.30;;;3.00;;
26908;SDS011;14477;51.038;4.588;2023-09-08T07:56:21;3.60;;;3.20;;
26908;SDS011;14477;51.038;4.588;2023-09-08T07:58:47;5.10;;;3.03;;
26908;SDS011;14477;51.038;4.588;2023-09-08T08:01:13;4.32;;;2.90;;
26908;SDS011;14477;51.038;4.588;2023-09-08T08:03:40;3.50;;;3.20;;
26908;SDS011;14477;51.038;4.588;2023-09-08T08:06:06;3.30;;;3.00;;
26908;SDS011;14477;51.038;4.588;2023-09-08T08:08:33;3.92;;;2.95;;
26908;SDS011;14477;51.038;4.588;2023-09-08T08:11:08;3.50;;;2.97;;
26908;SDS011;14477;51.038;4.588;2023-09-08T08:13:37;3.95;;;3.40;;
26908;SDS011;14477;51.038;4.588;2023-09-08T08:16:03;4.10;;;3.20;;
26908;SDS011;14477;51.038;4.588;2023-09-08T08:18:29;3.75;;;3.42;;
26908;SDS011;14477;51.038;4.588;2023-09-08T08:20:55;4.30;;;3.30;;
26908;SDS011;14477;51.038;4.588;2023-09-08T08:23:20;4.57;;;3.30;;
26908;SDS011;14477;51.038;4.588;2023-09-08T08:25:48;3.43;;;3.13;;
26908;SDS011;14477;51.038;4.588;2023-09-08T08:28:14;3.92;;;3.42;;
26908;SDS011;14477;51.038;4.588;2023-09-08T08:30:40;4.18;;;3.78;;
26908;SDS011;14477;51.038;4.588;2023-09-08T08:33:06;4.13;;;3.30;;
26908;SDS011;14477;51.038;4.588;2023-09-08T08:35:31;3.50;;;3.20;;
26908;SDS011;14477;51.038;4.588;2023-09-08T08:37:58;4.15;;;3.70;;
26908;SDS011;14477;51.038;4.588;2023-09-08T08:40:25;4.13;;;3.55;;
26908;SDS011;14477;51.038;4.588;2023-09-08T08:42:58;4.97;;;3.50;;
26908;SDS011;14477;51.038;4.588;2023-09-08T08:45:24;4.47;;;4.07;;
26908;SDS011;14477;51.038;4.588;2023-09-08T08:47:50;4.35;;;3.95;;
26908;SDS011;14477;51.038;4.588;2023-09-08T08:50:17;4.57;;;4.18;;
26908;SDS011;14477;51.038;4.588;2023-09-08T08:52:43;5.25;;;4.47;;
26908;SDS011;14477;51.038;4.588;2023-09-08T08:55:09;4.13;;;3.73;;
26908;SDS011;14477;51.038;4.588;2023-09-08T08:57:38;4.80;;;4.40;;
26908;SDS011;14477;51.038;4.588;2023-09-08T09:00:08;4.50;;;4.05;;
26908;SDS011;14477;51.038;4.588;2023-09-08T09:02:40;5.13;;;3.77;;
26908;SDS011;14477;51.038;4.588;2023-09-08T09:05:07;4.97;;;3.67;;
26908;SDS011;14477;51.038;4.588;2023-09-08T09:07:35;4.28;;;3.88;;
26908;SDS011;14477;51.038;4.588;2023-09-08T09:10:03;4.68;;;4.00;;
26908;SDS011;14477;51.038;4.588;2023-09-08T09:12:29;4.40;;;4.00;;
26908;SDS011;14477;51.038;4.588;2023-09-08T09:14:56;4.27;;;3.87;;
26908;SDS011;14477;51.038;4.588;2023-09-08T09:17:24;4.20;;;3.80;;
26908;SDS011;14477;51.038;4.588;2023-09-08T09:19:50;5.03;;;4.63;;
26908;SDS011;14477;51.038;4.588;2023-09-08T09:22:36;5.53;;;4.20;;
26908;SDS011;14477;51.038;4.588;2023-09-08T09:25:02;4.40;;;4.05;;
26908;SDS011;14477;51.038;4.588;2023-09-08T09:27:32;5.15;;;4.53;;
26908;SDS011;14477;51.038;4.588;2023-09-08T09:30:04;5.25;;;3.95;;
26908;SDS011;14477;51.038;4.588;2023-09-08T09:32:30;5.00;;;4.47;;
26908;SDS011;14477;51.038;4.588;2023-09-08T09:34:56;5.07;;;4.67;;
26908;SDS011;14477;51.038;4.588;2023-09-08T09:37:26;5.35;;;4.85;;
26908;SDS011;14477;51.038;4.588;2023-09-08T09:39:52;6.00;;;4.65;;
26908;SDS011;14477;51.038;4.588;2023-09-08T09:42:19;5.05;;;4.65;;
26908;SDS011;14477;51.038;4.588;2023-09-08T09:44:49;4.80;;;4.40;;
26908;SDS011;14477;51.038;4.588;2023-09-08T09:47:17;4.47;;;4.07;;
26908;SDS011;14477;51.038;4.588;2023-09-08T09:49:47;4.82;;;4.43;;
26908;SDS011;14477;51.038;4.588;2023-09-08T09:52:14;4.85;;;4.35;;
26908;SDS011;14477;51.038;4.588;2023-09-08T09:54:49;4.85;;;4.45;;
26908;SDS011;14477;51.038;4.588;2023-09-08T09:57:20;4.80;;;4.40;;
26908;SDS011;14477;51.038;4.588;2023-09-08T09:59:49;4.73;;;4.33;;
26908;SDS011;14477;51.038;4.588;2023-09-08T10:02:18;4.97;;;4.57;;
26908;SDS011;14477;51.038;4.588;2023-09-08T10:04:45;5.05;;;4.63;;
26908;SDS011;14477;51.038;4.588;2023-09-08T10:07:16;5.03;;;4.63;;
26908;SDS011;14477;51.038;4.588;2023-09-08T10:09:43;4.85;;;4.45;;
26908;SDS011;14477;51.038;4.588;2023-09-08T10:12:08;4.97;;;4.67;;
26908;SDS011;14477;51.038;4.588;2023-09-08T10:14:36;5.53;;;4.93;;
26908;SDS011;14477;51.038;4.588;2023-09-08T10:17:06;4.90;;;4.50;;
26908;SDS011;14477;51.038;4.588;2023-09-08T10:19:37;4.90;;;4.40;;
26908;SDS011;14477;51.038;4.588;2023-09-08T10:22:06;4.90;;;4.50;;
26908;SDS011;14477;51.038;4.588;2023-09-08T10:24:38;4.85;;;4.45;;
26908;SDS011;14477;51.038;4.588;2023-09-08T10:27:08;5.05;;;4.55;;
26908;SDS011;14477;51.038;4.588;2023-09-08T10:29:34;5.18;;;4.78;;
26908;SDS011;14477;51.038;4.588;2023-09-08T10:32:01;5.03;;;4.60;;
26908;SDS011;14477;51.038;4.588;2023-09-08T10:34:28;5.03;;;4.63;;
26908;SDS011;14477;51.038;4.588;2023-09-08T10:36:55;5.10;;;4.43;;
26908;SDS011;14477;51.038;4.588;2023-09-08T10:39:31;4.93;;;4.53;;
26908;SDS011;14477;51.038;4.588;2023-09-08T10:45:00;5.60;;;5.10;;
26908;SDS011;14477;51.038;4.588;2023-09-08T10:47:31;4.97;;;4.57;;
26908;SDS011;14477;51.038;4.588;2023-09-08T10:50:01;5.38;;;4.97;;
26908;SDS011;14477;51.038;4.588;2023-09-08T10:52:28;6.07;;;5.50;;
26908;SDS011;14477;51.038;4.588;2023-09-08T10:54:55;5.43;;;5.03;;
26908;SDS011;14477;51.038;4.588;2023-09-08T10:57:21;6.00;;;5.40;;
26908;SDS011;14477;51.038;4.588;2023-09-08T11:00:00;5.88;;;5.25;;
26908;SDS011;14477;51.038;4.588;2023-09-08T11:05:03;5.38;;;4.97;;
26908;SDS011;14477;51.038;4.588;2023-09-08T11:07:36;5.85;;;5.35;;
26908;SDS011;14477;51.038;4.588;2023-09-08T11:10:03;6.00;;;5.60;;
26908;SDS011;14477;51.038;4.588;2023-09-08T11:12:30;5.70;;;5.25;;
26908;SDS011;14477;51.038;4.588;2023-09-08T11:14:57;6.13;;;5.63;;
26908;SDS011;14477;51.038;4.588;2023-09-08T11:17:29;4.95;;;4.55;;
26908;SDS011;14477;51.038;4.588;2023-09-08T11:19:56;5.47;;;5.07;;
26908;SDS011;14477;51.038;4.588;2023-09-08T11:22:23;5.30;;;4.90;;
26908;SDS011;14477;51.038;4.588;2023-09-08T11:24:49;5.75;;;5.35;;
26908;SDS011;14477;51.038;4.588;2023-09-08T11:27:22;5.30;;;4.90;;
26908;SDS011;14477;51.038;4.588;2023-09-08T11:29:48;5.63;;;5.13;;
26908;SDS011;14477;51.038;4.588;2023-09-08T11:32:15;5.05;;;4.65;;
26908;SDS011;14477;51.038;4.588;2023-09-08T11:34:41;5.63;;;5.23;;
26908;SDS011;14477;51.038;4.588;2023-09-08T11:37:07;5.55;;;5.15;;
26908;SDS011;14477;51.038;4.588;2023-09-08T11:39:41;4.85;;;4.45;;
26908;SDS011;14477;51.038;4.588;2023-09-08T11:42:08;5.38;;;4.75;;
26908;SDS011;14477;51.038;4.588;2023-09-08T11:44:35;5.03;;;4.53;;
26908;SDS011;14477;51.038;4.588;2023-09-08T11:47:08;4.97;;;4.45;;
26908;SDS011;14477;51.038;4.588;2023-09-08T11:49:36;5.30;;;4.90;;
26908;SDS011;14477;51.038;4.588;2023-09-08T11:52:03;5.15;;;4.72;;
26908;SDS011;14477;51.038;4.588;2023-09-08T11:54:31;5.53;;;5.03;;
26908;SDS011;14477;51.038;4.588;2023-09-08T11:57:00;5.27;;;4.90;;
26908;SDS011;14477;51.038;4.588;2023-09-08T11:59:28;5.40;;;4.90;;
26908;SDS011;14477;51.038;4.588;2023-09-08T12:01:56;6.40;;;4.65;;
26908;SDS011;14477;51.038;4.588;2023-09-08T12:04:22;4.82;;;4.43;;
26908;SDS011;14477;51.038;4.588;2023-09-08T12:06:48;5.20;;;4.78;;
26908;SDS011;14477;51.038;4.588;2023-09-08T12:09:15;4.73;;;4.37;;
26908;SDS011;14477;51.038;4.588;2023-09-08T12:11:41;5.03;;;4.53;;
26908;SDS011;14477;51.038;4.588;2023-09-08T12:14:11;4.78;;;4.38;;
26908;SDS011;14477;51.038;4.588;2023-09-08T12:16:39;4.65;;;4.35;;
26908;SDS011;14477;51.038;4.588;2023-09-08T12:19:06;4.70;;;4.40;;
26908;SDS011;14477;51.038;4.588;2023-09-08T12:21:35;4.40;;;4.00;;
26908;SDS011;14477;51.038;4.588;2023-09-08T12:24:18;4.40;;;4.07;;
26908;SDS011;14477;51.038;4.588;2023-09-08T12:26:44;4.60;;;4.20;;
26908;SDS011;14477;51.038;4.588;2023-09-08T12:29:13;5.17;;;4.57;;
26908;SDS011;14477;51.038;4.588;2023-09-08T12:31:38;4.78;;;4.38;;
26908;SDS011;14477;51.038;4.588;2023-09-08T12:34:04;4.88;;;4.43;;
26908;SDS011;14477;51.038;4.588;2023-09-08T12:36:30;5.23;;;4.83;;
26908;SDS011;14477;51.038;4.588;2023-09-08T12:38:56;4.78;;;4.28;;
26908;SDS011;14477;51.038;4.588;2023-09-08T12:41:21;4.67;;;4.23;;
26908;SDS011;14477;51.038;4.588;2023-09-08T12:43:47;5.32;;;4.82;;
26908;SDS011;14477;51.038;4.588;2023-09-08T12:46:13;4.60;;;4.17;;
26908;SDS011;14477;51.038;4.588;2023-09-08T12:48:43;4.32;;;4.03;;
26908;SDS011;14477;51.038;4.588;2023-09-08T12:51:08;4.60;;;4.20;;
26908;SDS011;14477;51.038;4.588;2023-09-08T12:53:34;5.80;;;4.40;;
26908;SDS011;14477;51.038;4.588;2023-09-08T12:56:02;4.82;;;4.43;;
26908;SDS011;14477;51.038;4.588;2023-09-08T12:58:28;4.63;;;4.23;;
26908;SDS011;14477;51.038;4.588;2023-09-08T13:00:54;4.20;;;3.88;;
26908;SDS011;14477;51.038;4.588;2023-09-08T13:03:20;4.05;;;3.55;;
26908;SDS011;14477;51.038;4.588;2023-09-08T13:05:46;4.47;;;4.07;;
26908;SDS011;14477;51.038;4.588;2023-09-08T13:08:12;4.50;;;4.00;;
26908;SDS011;14477;51.038;4.588;2023-09-08T13:10:40;4.55;;;4.05;;
26908;SDS011;14477;51.038;4.588;2023-09-08T13:13:06;5.68;;;4.07;;
26908;SDS011;14477;51.038;4.588;2023-09-08T13:15:32;4.50;;;4.03;;
26908;SDS011;14477;51.038;4.588;2023-09-08T13:17:57;4.50;;;4.10;;
26908;SDS011;14477;51.038;4.588;2023-09-08T13:20:23;4.50;;;4.10;;
26908;SDS011;14477;51.038;4.588;2023-09-08T13:22:49;4.13;;;3.78;;
26908;SDS011;14477;51.038;4.588;2023-09-08T13:25:15;4.63;;;4.10;;
26908;SDS011;14477;51.038;4.588;2023-09-08T13:27:41;3.65;;;3.25;;
26908;SDS011;14477;51.038;4.588;2023-09-08T13:30:10;4.38;;;3.97;;
26908;SDS011;14477;51.038;4.588;2023-09-08T13:32:40;5.10;;;4.10;;
26908;SDS011;14477;51.038;4.588;2023-09-08T13:35:06;5.80;;;3.60;;
26908;SDS011;14477;51.038;4.588;2023-09-08T13:37:35;4.68;;;3.90;;
26908;SDS011;14477;51.038;4.588;2023-09-08T13:40:03;4.72;;;4.00;;
26908;SDS011;14477;51.038;4.588;2023-09-08T13:42:29;3.97;;;3.53;;
26908;SDS011;14477;51.038;4.588;2023-09-08T13:44:55;4.73;;;3.70;;
26908;SDS011;14477;51.038;4.588;2023-09-08T13:47:20;3.60;;;3.30;;
26908;SDS011;14477;51.038;4.588;2023-09-08T13:49:46;4.00;;;3.70;;
26908;SDS011;14477;51.038;4.588;2023-09-08T13:52:12;3.83;;;3.40;;
26908;SDS011;14477;51.038;4.588;2023-09-08T13:54:38;5.73;;;3.07;;
26908;SDS011;14477;51.038;4.588;2023-09-08T13:57:04;3.77;;;3.37;;
26908;SDS011;14477;51.038;4.588;2023-09-08T13:59:30;5.05;;;3.05;;
26908;SDS011;14477;51.038;4.588;2023-09-08T14:01:56;4.05;;;3.25;;
26908;SDS011;14477;51.038;4.588;2023-09-08T14:04:23;3.73;;;2.63;;
26908;SDS011;14477;51.038;4.588;2023-09-08T14:06:50;3.97;;;2.50;;
26908;SDS011;14477;51.038;4.588;2023-09-08T14:09:16;3.13;;;2.55;;
26908;SDS011;14477;51.038;4.588;2023-09-08T14:11:42;4.50;;;2.60;;
26908;SDS011;14477;51.038;4.588;2023-09-08T14:14:08;3.90;;;2.58;;
26908;SDS011;14477;51.038;4.588;2023-09-08T14:16:33;4.07;;;2.50;;
26908;SDS011;14477;51.038;4.588;2023-09-08T14:19:00;3.93;;;2.87;;
26908;SDS011;14477;51.038;4.588;2023-09-08T14:21:26;3.92;;;2.90;;
26908;SDS011;14477;51.038;4.588;2023-09-08T14:23:51;3.37;;;2.67;;
26908;SDS011;14477;51.038;4.588;2023-09-08T14:26:17;5.57;;;2.55;;
26908;SDS011;14477;51.038;4.588;2023-09-08T14:28:45;4.15;;;2.45;;
26908;SDS011;14477;51.038;4.588;2023-09-08T14:31:10;3.67;;;2.20;;
26908;SDS011;14477;51.038;4.588;2023-09-08T14:33:36;4.72;;;2.67;;
26908;SDS011;14477;51.038;4.588;2023-09-08T14:36:02;3.70;;;2.30;;
26908;SDS011;14477;51.038;4.588;2023-09-08T14:38:28;4.78;;;2.58;;
26908;SDS011;14477;51.038;4.588;2023-09-08T14:40:57;4.57;;;2.78;;
26908;SDS011;14477;51.038;4.588;2023-09-08T14:43:27;3.67;;;2.33;;
26908;SDS011;14477;51.038;4.588;2023-09-08T14:45:54;4.43;;;2.63;;
26908;SDS011;14477;51.038;4.588;2023-09-08T14:48:24;4.40;;;2.42;;
26908;SDS011;14477;51.038;4.588;2023-09-08T14:50:50;3.10;;;2.60;;
26908;SDS011;14477;51.038;4.588;2023-09-08T14:53:16;6.03;;;2.87;;